sensor_id;sensor_type;location;lat;lon;timestamp;P1;durP1;ratioP1;P2;durP2;ratioP2
16737;SDS011;17906;47.684;10.806;2024-01-30T00:01:56;4.40;;;1.87;;
16737;SDS011;17906;47.684;10.806;2024-01-30T00:04:23;2.60;;;1.43;;
16737;SDS011;17906;47.684;10.806;2024-01-30T00:06:51;2.50;;;0.93;;
16737;SDS011;17906;47.684;10.806;2024-01-30T00:09:18;4.23;;;1.33;;
16737;SDS011;17906;47.684;10.806;2024-01-30T00:11:45;3.07;;;1.17;;
16737;SDS011;17906;47.684;10.806;2024-01-30T00:14:12;4.73;;;2.03;;
16737;SDS011;17906;47.684;10.806;2024-01-30T00:16:39;3.57;;;1.80;;
16737;SDS011;17906;47.684;10.806;2024-01-30T00:19:05;3.43;;;1.40;;
16737;SDS011;17906;47.684;10.806;2024-01-30T00:21:33;4.33;;;1.70;;
16737;SDS011;17906;47.684;10.806;2024-01-30T00:24:01;2.33;;;1.30;;
16737;SDS011;17906;47.684;10.806;2024-01-30T00:26:28;3.20;;;1.50;;
16737;SDS011;17906;47.684;10.806;2024-01-30T00:28:54;4.10;;;1.93;;
16737;SDS011;17906;47.684;10.806;2024-01-30T00:31:21;3.17;;;1.47;;
16737;SDS011;17906;47.684;10.806;2024-01-30T00:33:47;2.90;;;1.37;;
16737;SDS011;17906;47.684;10.806;2024-01-30T00:36:14;2.03;;;1.20;;
16737;SDS011;17906;47.684;10.806;2024-01-30T00:38:41;3.40;;;1.13;;
16737;SDS011;17906;47.684;10.806;2024-01-30T00:41:09;3.47;;;1.37;;
16737;SDS011;17906;47.684;10.806;2024-01-30T00:43:35;2.83;;;1.23;;
16737;SDS011;17906;47.684;10.806;2024-01-30T00:46:02;2.93;;;1.40;;
16737;SDS011;17906;47.684;10.806;2024-01-30T00:48:29;2.33;;;1.07;;
16737;SDS011;17906;47.684;10.806;2024-01-30T00:50:56;3.17;;;1.40;;
16737;SDS011;17906;47.684;10.806;2024-01-30T00:53:22;4.37;;;1.43;;
16737;SDS011;17906;47.684;10.806;2024-01-30T00:55:49;3.10;;;1.70;;
16737;SDS011;17906;47.684;10.806;2024-01-30T00:58:17;2.77;;;1.40;;
16737;SDS011;17906;47.684;10.806;2024-01-30T01:00:44;7.47;;;2.27;;
16737;SDS011;17906;47.684;10.806;2024-01-30T01:03:11;5.50;;;1.90;;
16737;SDS011;17906;47.684;10.806;2024-01-30T01:05:39;3.37;;;1.80;;
16737;SDS011;17906;47.684;10.806;2024-01-30T01:08:05;2.87;;;1.57;;
16737;SDS011;17906;47.684;10.806;2024-01-30T01:10:33;3.80;;;1.50;;
16737;SDS011;17906;47.684;10.806;2024-01-30T01:12:58;3.30;;;1.33;;
16737;SDS011;17906;47.684;10.806;2024-01-30T01:15:26;3.13;;;1.60;;
16737;SDS011;17906;47.684;10.806;2024-01-30T01:17:53;3.07;;;1.33;;
16737;SDS011;17906;47.684;10.806;2024-01-30T01:20:19;3.10;;;1.40;;
16737;SDS011;17906;47.684;10.806;2024-01-30T01:22:46;3.97;;;1.47;;
16737;SDS011;17906;47.684;10.806;2024-01-30T01:25:13;2.83;;;1.40;;
16737;SDS011;17906;47.684;10.806;2024-01-30T01:27:40;4.10;;;1.60;;
16737;SDS011;17906;47.684;10.806;2024-01-30T01:30:08;2.80;;;1.40;;
16737;SDS011;17906;47.684;10.806;2024-01-30T01:32:38;3.37;;;1.30;;
16737;SDS011;17906;47.684;10.806;2024-01-30T01:35:09;2.77;;;1.30;;
16737;SDS011;17906;47.684;10.806;2024-01-30T01:37:36;2.77;;;1.00;;
16737;SDS011;17906;47.684;10.806;2024-01-30T01:40:03;2.83;;;1.30;;
16737;SDS011;17906;47.684;10.806;2024-01-30T01:42:31;2.50;;;0.93;;
16737;SDS011;17906;47.684;10.806;2024-01-30T01:44:57;2.77;;;1.10;;
16737;SDS011;17906;47.684;10.806;2024-01-30T01:47:24;2.30;;;1.17;;
16737;SDS011;17906;47.684;10.806;2024-01-30T01:49:52;2.60;;;1.27;;
16737;SDS011;17906;47.684;10.806;2024-01-30T01:52:19;7.33;;;2.77;;
16737;SDS011;17906;47.684;10.806;2024-01-30T01:54:45;9.40;;;3.13;;
16737;SDS011;17906;47.684;10.806;2024-01-30T01:57:12;9.87;;;3.00;;
16737;SDS011;17906;47.684;10.806;2024-01-30T01:59:39;3.90;;;1.57;;
16737;SDS011;17906;47.684;10.806;2024-01-30T02:02:06;1.70;;;1.00;;
16737;SDS011;17906;47.684;10.806;2024-01-30T02:04:37;3.17;;;1.40;;
16737;SDS011;17906;47.684;10.806;2024-01-30T02:07:05;2.17;;;1.20;;
16737;SDS011;17906;47.684;10.806;2024-01-30T02:09:32;5.03;;;1.43;;
16737;SDS011;17906;47.684;10.806;2024-01-30T02:11:58;2.37;;;1.27;;
16737;SDS011;17906;47.684;10.806;2024-01-30T02:14:25;1.80;;;1.10;;
16737;SDS011;17906;47.684;10.806;2024-01-30T02:16:51;2.67;;;1.50;;
16737;SDS011;17906;47.684;10.806;2024-01-30T02:19:17;1.87;;;0.90;;
16737;SDS011;17906;47.684;10.806;2024-01-30T02:21:46;2.30;;;1.00;;
16737;SDS011;17906;47.684;10.806;2024-01-30T02:24:13;2.50;;;1.20;;
16737;SDS011;17906;47.684;10.806;2024-01-30T02:26:39;3.30;;;1.63;;
16737;SDS011;17906;47.684;10.806;2024-01-30T02:29:06;2.70;;;1.30;;
16737;SDS011;17906;47.684;10.806;2024-01-30T02:31:33;2.17;;;1.00;;
16737;SDS011;17906;47.684;10.806;2024-01-30T02:33:59;1.67;;;0.87;;
16737;SDS011;17906;47.684;10.806;2024-01-30T02:36:26;4.40;;;1.00;;
16737;SDS011;17906;47.684;10.806;2024-01-30T02:38:54;2.20;;;0.90;;
16737;SDS011;17906;47.684;10.806;2024-01-30T02:41:20;0.90;;;0.60;;
16737;SDS011;17906;47.684;10.806;2024-01-30T02:43:47;1.80;;;0.90;;
16737;SDS011;17906;47.684;10.806;2024-01-30T02:46:14;3.40;;;1.37;;
16737;SDS011;17906;47.684;10.806;2024-01-30T02:48:40;2.03;;;1.00;;
16737;SDS011;17906;47.684;10.806;2024-01-30T02:51:07;2.80;;;1.10;;
16737;SDS011;17906;47.684;10.806;2024-01-30T02:53:34;3.33;;;1.00;;
16737;SDS011;17906;47.684;10.806;2024-01-30T02:56:02;2.33;;;1.03;;
16737;SDS011;17906;47.684;10.806;2024-01-30T02:58:30;3.83;;;1.03;;
16737;SDS011;17906;47.684;10.806;2024-01-30T03:00:57;2.73;;;1.10;;
16737;SDS011;17906;47.684;10.806;2024-01-30T03:03:24;2.33;;;1.10;;
16737;SDS011;17906;47.684;10.806;2024-01-30T03:05:50;3.33;;;1.37;;
16737;SDS011;17906;47.684;10.806;2024-01-30T03:08:17;5.07;;;1.40;;
16737;SDS011;17906;47.684;10.806;2024-01-30T03:10:43;2.73;;;1.10;;
16737;SDS011;17906;47.684;10.806;2024-01-30T03:13:11;2.07;;;1.10;;
16737;SDS011;17906;47.684;10.806;2024-01-30T03:15:38;3.37;;;1.10;;
16737;SDS011;17906;47.684;10.806;2024-01-30T03:18:05;1.67;;;0.90;;
16737;SDS011;17906;47.684;10.806;2024-01-30T03:20:31;1.60;;;0.90;;
16737;SDS011;17906;47.684;10.806;2024-01-30T03:22:59;2.23;;;0.90;;
16737;SDS011;17906;47.684;10.806;2024-01-30T03:25:26;2.77;;;1.00;;
16737;SDS011;17906;47.684;10.806;2024-01-30T03:27:52;2.60;;;1.00;;
16737;SDS011;17906;47.684;10.806;2024-01-30T03:30:21;2.80;;;1.13;;
16737;SDS011;17906;47.684;10.806;2024-01-30T03:32:48;2.53;;;0.90;;
16737;SDS011;17906;47.684;10.806;2024-01-30T03:35:15;1.80;;;0.90;;
16737;SDS011;17906;47.684;10.806;2024-01-30T03:37:42;2.20;;;1.10;;
16737;SDS011;17906;47.684;10.806;2024-01-30T03:40:09;3.10;;;1.50;;
16737;SDS011;17906;47.684;10.806;2024-01-30T03:42:36;3.60;;;1.33;;
16737;SDS011;17906;47.684;10.806;2024-01-30T03:45:03;4.90;;;2.20;;
16737;SDS011;17906;47.684;10.806;2024-01-30T03:47:32;3.33;;;1.53;;
16737;SDS011;17906;47.684;10.806;2024-01-30T03:49:58;3.67;;;1.60;;
16737;SDS011;17906;47.684;10.806;2024-01-30T03:52:25;1.93;;;0.90;;
16737;SDS011;17906;47.684;10.806;2024-01-30T03:54:51;4.33;;;0.90;;
16737;SDS011;17906;47.684;10.806;2024-01-30T03:57:18;1.73;;;0.80;;
16737;SDS011;17906;47.684;10.806;2024-01-30T03:59:45;1.70;;;1.30;;
16737;SDS011;17906;47.684;10.806;2024-01-30T04:02:11;2.10;;;1.03;;
16737;SDS011;17906;47.684;10.806;2024-01-30T04:04:39;1.30;;;0.73;;
16737;SDS011;17906;47.684;10.806;2024-01-30T04:07:06;1.50;;;0.70;;
16737;SDS011;17906;47.684;10.806;2024-01-30T04:09:32;2.47;;;0.73;;
16737;SDS011;17906;47.684;10.806;2024-01-30T04:11:59;1.77;;;1.00;;
16737;SDS011;17906;47.684;10.806;2024-01-30T04:14:28;2.03;;;0.90;;
16737;SDS011;17906;47.684;10.806;2024-01-30T04:16:54;1.47;;;0.60;;
16737;SDS011;17906;47.684;10.806;2024-01-30T04:19:21;2.20;;;1.00;;
16737;SDS011;17906;47.684;10.806;2024-01-30T04:21:49;3.43;;;1.07;;
16737;SDS011;17906;47.684;10.806;2024-01-30T04:24:16;3.53;;;1.10;;
16737;SDS011;17906;47.684;10.806;2024-01-30T04:26:43;2.23;;;0.90;;
16737;SDS011;17906;47.684;10.806;2024-01-30T04:29:10;1.87;;;1.20;;
16737;SDS011;17906;47.684;10.806;2024-01-30T04:31:37;2.90;;;0.80;;
16737;SDS011;17906;47.684;10.806;2024-01-30T04:34:03;1.83;;;0.90;;
16737;SDS011;17906;47.684;10.806;2024-01-30T04:36:30;1.40;;;1.00;;
16737;SDS011;17906;47.684;10.806;2024-01-30T04:38:58;2.37;;;1.00;;
16737;SDS011;17906;47.684;10.806;2024-01-30T04:41:24;2.70;;;1.00;;
16737;SDS011;17906;47.684;10.806;2024-01-30T04:43:51;1.73;;;0.80;;
16737;SDS011;17906;47.684;10.806;2024-01-30T04:46:17;2.87;;;1.13;;
16737;SDS011;17906;47.684;10.806;2024-01-30T04:48:44;2.53;;;0.83;;
16737;SDS011;17906;47.684;10.806;2024-01-30T04:51:11;2.57;;;1.00;;
16737;SDS011;17906;47.684;10.806;2024-01-30T04:53:37;2.13;;;0.93;;
16737;SDS011;17906;47.684;10.806;2024-01-30T04:56:07;1.17;;;0.70;;
16737;SDS011;17906;47.684;10.806;2024-01-30T04:58:33;1.33;;;0.70;;
16737;SDS011;17906;47.684;10.806;2024-01-30T05:01:00;2.30;;;0.80;;
16737;SDS011;17906;47.684;10.806;2024-01-30T05:03:26;2.50;;;0.73;;
16737;SDS011;17906;47.684;10.806;2024-01-30T05:05:53;2.13;;;0.70;;
16737;SDS011;17906;47.684;10.806;2024-01-30T05:08:20;0.60;;;0.50;;
16737;SDS011;17906;47.684;10.806;2024-01-30T05:10:46;1.43;;;0.80;;
16737;SDS011;17906;47.684;10.806;2024-01-30T05:13:14;1.20;;;0.63;;
16737;SDS011;17906;47.684;10.806;2024-01-30T05:15:41;1.50;;;0.60;;
16737;SDS011;17906;47.684;10.806;2024-01-30T05:18:07;0.90;;;0.50;;
16737;SDS011;17906;47.684;10.806;2024-01-30T05:20:34;1.37;;;0.57;;
16737;SDS011;17906;47.684;10.806;2024-01-30T05:23:01;4.33;;;1.70;;
16737;SDS011;17906;47.684;10.806;2024-01-30T05:25:27;5.50;;;2.10;;
16737;SDS011;17906;47.684;10.806;2024-01-30T05:27:54;7.50;;;3.30;;
16737;SDS011;17906;47.684;10.806;2024-01-30T05:30:23;5.30;;;2.53;;
16737;SDS011;17906;47.684;10.806;2024-01-30T05:32:49;9.20;;;3.90;;
16737;SDS011;17906;47.684;10.806;2024-01-30T05:35:16;7.63;;;3.53;;
16737;SDS011;17906;47.684;10.806;2024-01-30T05:37:42;5.87;;;3.07;;
16737;SDS011;17906;47.684;10.806;2024-01-30T05:40:09;4.50;;;2.50;;
16737;SDS011;17906;47.684;10.806;2024-01-30T05:42:37;3.97;;;1.90;;
16737;SDS011;17906;47.684;10.806;2024-01-30T05:45:04;6.37;;;2.60;;
16737;SDS011;17906;47.684;10.806;2024-01-30T05:47:32;4.73;;;2.43;;
16737;SDS011;17906;47.684;10.806;2024-01-30T05:49:59;16.13;;;6.33;;
16737;SDS011;17906;47.684;10.806;2024-01-30T05:52:26;15.37;;;5.87;;
16737;SDS011;17906;47.684;10.806;2024-01-30T05:54:52;10.43;;;4.63;;
16737;SDS011;17906;47.684;10.806;2024-01-30T05:57:19;5.90;;;2.30;;
16737;SDS011;17906;47.684;10.806;2024-01-30T05:59:46;5.60;;;2.33;;
16737;SDS011;17906;47.684;10.806;2024-01-30T06:02:13;2.37;;;1.30;;
16737;SDS011;17906;47.684;10.806;2024-01-30T06:04:41;3.40;;;1.50;;
16737;SDS011;17906;47.684;10.806;2024-01-30T06:07:09;3.60;;;1.37;;
16737;SDS011;17906;47.684;10.806;2024-01-30T06:09:36;2.67;;;1.20;;
16737;SDS011;17906;47.684;10.806;2024-01-30T06:12:04;2.67;;;1.10;;
16737;SDS011;17906;47.684;10.806;2024-01-30T06:14:31;1.90;;;1.00;;
16737;SDS011;17906;47.684;10.806;2024-01-30T06:16:58;2.83;;;1.10;;
16737;SDS011;17906;47.684;10.806;2024-01-30T06:19:25;1.57;;;0.87;;
16737;SDS011;17906;47.684;10.806;2024-01-30T06:21:53;2.60;;;1.37;;
16737;SDS011;17906;47.684;10.806;2024-01-30T06:24:20;2.93;;;1.40;;
16737;SDS011;17906;47.684;10.806;2024-01-30T06:26:47;4.03;;;1.43;;
16737;SDS011;17906;47.684;10.806;2024-01-30T06:29:13;5.40;;;1.77;;
16737;SDS011;17906;47.684;10.806;2024-01-30T06:31:41;4.10;;;1.50;;
16737;SDS011;17906;47.684;10.806;2024-01-30T06:34:09;3.30;;;1.70;;
16737;SDS011;17906;47.684;10.806;2024-01-30T06:36:36;5.43;;;1.90;;
16737;SDS011;17906;47.684;10.806;2024-01-30T06:39:04;4.03;;;1.80;;
16737;SDS011;17906;47.684;10.806;2024-01-30T06:41:31;4.43;;;1.73;;
16737;SDS011;17906;47.684;10.806;2024-01-30T06:43:58;5.33;;;1.90;;
16737;SDS011;17906;47.684;10.806;2024-01-30T06:46:24;5.20;;;2.10;;
16737;SDS011;17906;47.684;10.806;2024-01-30T06:48:52;5.83;;;2.23;;
16737;SDS011;17906;47.684;10.806;2024-01-30T06:51:19;6.67;;;2.27;;
16737;SDS011;17906;47.684;10.806;2024-01-30T06:53:45;5.40;;;2.30;;
16737;SDS011;17906;47.684;10.806;2024-01-30T06:56:13;4.03;;;2.17;;
16737;SDS011;17906;47.684;10.806;2024-01-30T06:58:40;3.80;;;1.40;;
16737;SDS011;17906;47.684;10.806;2024-01-30T07:01:07;4.67;;;1.30;;
16737;SDS011;17906;47.684;10.806;2024-01-30T07:03:35;2.40;;;1.20;;
16737;SDS011;17906;47.684;10.806;2024-01-30T07:06:01;2.87;;;1.43;;
16737;SDS011;17906;47.684;10.806;2024-01-30T07:08:28;3.50;;;1.57;;
16737;SDS011;17906;47.684;10.806;2024-01-30T07:10:55;3.17;;;1.70;;
16737;SDS011;17906;47.684;10.806;2024-01-30T07:13:23;3.13;;;1.60;;
16737;SDS011;17906;47.684;10.806;2024-01-30T07:15:49;3.00;;;1.43;;
16737;SDS011;17906;47.684;10.806;2024-01-30T07:18:16;3.43;;;1.60;;
16737;SDS011;17906;47.684;10.806;2024-01-30T07:20:43;3.90;;;1.40;;
16737;SDS011;17906;47.684;10.806;2024-01-30T07:23:11;2.40;;;1.13;;
16737;SDS011;17906;47.684;10.806;2024-01-30T07:25:39;3.33;;;0.90;;
16737;SDS011;17906;47.684;10.806;2024-01-30T07:28:06;2.23;;;1.00;;
16737;SDS011;17906;47.684;10.806;2024-01-30T07:30:35;1.40;;;0.90;;
16737;SDS011;17906;47.684;10.806;2024-01-30T07:33:02;2.37;;;1.20;;
16737;SDS011;17906;47.684;10.806;2024-01-30T07:35:29;3.40;;;1.47;;
16737;SDS011;17906;47.684;10.806;2024-01-30T07:37:56;2.13;;;0.93;;
16737;SDS011;17906;47.684;10.806;2024-01-30T07:40:22;3.43;;;1.43;;
16737;SDS011;17906;47.684;10.806;2024-01-30T07:42:49;2.80;;;1.37;;
16737;SDS011;17906;47.684;10.806;2024-01-30T07:45:16;2.60;;;1.33;;
16737;SDS011;17906;47.684;10.806;2024-01-30T07:47:48;3.57;;;1.77;;
16737;SDS011;17906;47.684;10.806;2024-01-30T07:50:15;6.77;;;1.80;;
16737;SDS011;17906;47.684;10.806;2024-01-30T07:52:42;3.00;;;1.70;;
16737;SDS011;17906;47.684;10.806;2024-01-30T07:55:09;5.77;;;2.23;;
16737;SDS011;17906;47.684;10.806;2024-01-30T07:57:35;3.67;;;2.50;;
16737;SDS011;17906;47.684;10.806;2024-01-30T08:00:05;6.37;;;3.40;;
16737;SDS011;17906;47.684;10.806;2024-01-30T08:02:33;6.27;;;3.43;;
16737;SDS011;17906;47.684;10.806;2024-01-30T08:05:01;8.13;;;4.60;;
16737;SDS011;17906;47.684;10.806;2024-01-30T08:07:27;7.43;;;4.80;;
16737;SDS011;17906;47.684;10.806;2024-01-30T08:09:54;10.27;;;5.47;;
16737;SDS011;17906;47.684;10.806;2024-01-30T08:12:21;9.60;;;4.90;;
16737;SDS011;17906;47.684;10.806;2024-01-30T08:14:48;9.53;;;4.90;;
16737;SDS011;17906;47.684;10.806;2024-01-30T08:17:14;6.27;;;4.03;;
16737;SDS011;17906;47.684;10.806;2024-01-30T08:19:41;7.73;;;4.00;;
16737;SDS011;17906;47.684;10.806;2024-01-30T08:22:09;6.83;;;4.00;;
16737;SDS011;17906;47.684;10.806;2024-01-30T08:24:36;5.90;;;3.40;;
16737;SDS011;17906;47.684;10.806;2024-01-30T08:27:02;9.67;;;3.50;;
16737;SDS011;17906;47.684;10.806;2024-01-30T08:29:30;6.67;;;3.50;;
16737;SDS011;17906;47.684;10.806;2024-01-30T08:31:56;32.97;;;13.83;;
16737;SDS011;17906;47.684;10.806;2024-01-30T08:34:24;28.77;;;12.50;;
16737;SDS011;17906;47.684;10.806;2024-01-30T08:36:51;20.20;;;9.30;;
16737;SDS011;17906;47.684;10.806;2024-01-30T08:39:19;21.20;;;9.67;;
16737;SDS011;17906;47.684;10.806;2024-01-30T08:41:45;19.07;;;9.87;;
16737;SDS011;17906;47.684;10.806;2024-01-30T08:44:12;18.83;;;10.23;;
16737;SDS011;17906;47.684;10.806;2024-01-30T08:46:39;14.57;;;8.80;;
16737;SDS011;17906;47.684;10.806;2024-01-30T08:49:05;11.37;;;5.57;;
16737;SDS011;17906;47.684;10.806;2024-01-30T08:51:32;12.60;;;6.60;;
16737;SDS011;17906;47.684;10.806;2024-01-30T08:53:59;9.07;;;4.87;;
16737;SDS011;17906;47.684;10.806;2024-01-30T08:56:27;10.77;;;5.03;;
16737;SDS011;17906;47.684;10.806;2024-01-30T08:58:54;6.93;;;3.40;;
16737;SDS011;17906;47.684;10.806;2024-01-30T09:01:21;10.13;;;4.80;;
16737;SDS011;17906;47.684;10.806;2024-01-30T09:03:47;7.83;;;4.33;;
16737;SDS011;17906;47.684;10.806;2024-01-30T09:06:14;8.67;;;4.80;;
16737;SDS011;17906;47.684;10.806;2024-01-30T09:08:40;11.80;;;6.50;;
16737;SDS011;17906;47.684;10.806;2024-01-30T09:11:10;11.63;;;7.43;;
16737;SDS011;17906;47.684;10.806;2024-01-30T09:13:39;10.63;;;5.80;;
16737;SDS011;17906;47.684;10.806;2024-01-30T09:16:06;7.87;;;4.27;;
16737;SDS011;17906;47.684;10.806;2024-01-30T09:18:33;8.20;;;4.00;;
16737;SDS011;17906;47.684;10.806;2024-01-30T09:21:00;6.37;;;3.60;;
16737;SDS011;17906;47.684;10.806;2024-01-30T09:23:27;12.40;;;6.07;;
16737;SDS011;17906;47.684;10.806;2024-01-30T09:25:54;10.77;;;5.13;;
16737;SDS011;17906;47.684;10.806;2024-01-30T09:28:21;8.10;;;4.63;;
16737;SDS011;17906;47.684;10.806;2024-01-30T09:30:49;5.03;;;2.87;;
16737;SDS011;17906;47.684;10.806;2024-01-30T09:33:16;5.67;;;3.20;;
16737;SDS011;17906;47.684;10.806;2024-01-30T09:35:42;6.53;;;3.70;;
16737;SDS011;17906;47.684;10.806;2024-01-30T09:38:09;7.87;;;3.70;;
16737;SDS011;17906;47.684;10.806;2024-01-30T09:40:35;6.10;;;4.00;;
16737;SDS011;17906;47.684;10.806;2024-01-30T09:43:02;6.67;;;4.07;;
16737;SDS011;17906;47.684;10.806;2024-01-30T09:45:30;6.67;;;3.50;;
16737;SDS011;17906;47.684;10.806;2024-01-30T09:48:00;4.20;;;2.73;;
16737;SDS011;17906;47.684;10.806;2024-01-30T09:50:27;3.73;;;2.53;;
16737;SDS011;17906;47.684;10.806;2024-01-30T09:52:55;3.37;;;1.93;;
16737;SDS011;17906;47.684;10.806;2024-01-30T09:55:23;6.07;;;2.50;;
16737;SDS011;17906;47.684;10.806;2024-01-30T09:57:50;6.40;;;2.80;;
16737;SDS011;17906;47.684;10.806;2024-01-30T10:00:17;5.13;;;3.00;;
16737;SDS011;17906;47.684;10.806;2024-01-30T10:02:44;3.90;;;2.70;;
16737;SDS011;17906;47.684;10.806;2024-01-30T10:05:13;4.77;;;2.37;;
16737;SDS011;17906;47.684;10.806;2024-01-30T10:07:52;5.10;;;3.10;;
16737;SDS011;17906;47.684;10.806;2024-01-30T10:10:21;5.83;;;3.47;;
16737;SDS011;17906;47.684;10.806;2024-01-30T10:12:48;5.97;;;3.30;;
16737;SDS011;17906;47.684;10.806;2024-01-30T10:18:04;4.60;;;2.53;;
16737;SDS011;17906;47.684;10.806;2024-01-30T10:20:32;3.37;;;2.20;;
16737;SDS011;17906;47.684;10.806;2024-01-30T10:23:00;3.33;;;2.00;;
16737;SDS011;17906;47.684;10.806;2024-01-30T10:25:27;3.10;;;1.67;;
16737;SDS011;17906;47.684;10.806;2024-01-30T10:27:53;3.20;;;1.80;;
16737;SDS011;17906;47.684;10.806;2024-01-30T10:30:20;3.20;;;1.80;;
16737;SDS011;17906;47.684;10.806;2024-01-30T10:32:47;3.70;;;1.80;;
16737;SDS011;17906;47.684;10.806;2024-01-30T10:35:14;3.43;;;1.70;;
16737;SDS011;17906;47.684;10.806;2024-01-30T10:37:43;2.07;;;1.40;;
16737;SDS011;17906;47.684;10.806;2024-01-30T10:40:13;3.83;;;1.07;;
16737;SDS011;17906;47.684;10.806;2024-01-30T10:42:42;1.60;;;1.00;;
16737;SDS011;17906;47.684;10.806;2024-01-30T10:45:09;4.37;;;1.07;;
16737;SDS011;17906;47.684;10.806;2024-01-30T10:47:37;1.77;;;0.90;;
16737;SDS011;17906;47.684;10.806;2024-01-30T10:50:07;3.10;;;1.10;;
16737;SDS011;17906;47.684;10.806;2024-01-30T10:52:35;3.33;;;1.10;;
16737;SDS011;17906;47.684;10.806;2024-01-30T10:55:04;1.50;;;0.80;;
16737;SDS011;17906;47.684;10.806;2024-01-30T10:57:33;2.20;;;0.90;;
16737;SDS011;17906;47.684;10.806;2024-01-30T11:00:03;2.27;;;1.20;;
16737;SDS011;17906;47.684;10.806;2024-01-30T11:02:35;3.03;;;0.80;;
16737;SDS011;17906;47.684;10.806;2024-01-30T11:05:04;4.13;;;1.30;;
16737;SDS011;17906;47.684;10.806;2024-01-30T11:07:31;2.27;;;1.37;;
16737;SDS011;17906;47.684;10.806;2024-01-30T11:10:02;3.83;;;1.33;;
16737;SDS011;17906;47.684;10.806;2024-01-30T11:12:37;1.63;;;1.20;;
16737;SDS011;17906;47.684;10.806;2024-01-30T11:15:06;1.53;;;1.03;;
16737;SDS011;17906;47.684;10.806;2024-01-30T11:17:43;2.77;;;1.50;;
16737;SDS011;17906;47.684;10.806;2024-01-30T11:20:11;3.67;;;1.20;;
16737;SDS011;17906;47.684;10.806;2024-01-30T11:22:40;2.30;;;1.40;;
16737;SDS011;17906;47.684;10.806;2024-01-30T11:25:12;2.47;;;1.10;;
16737;SDS011;17906;47.684;10.806;2024-01-30T11:27:39;2.53;;;1.40;;
16737;SDS011;17906;47.684;10.806;2024-01-30T11:30:08;1.67;;;1.10;;
16737;SDS011;17906;47.684;10.806;2024-01-30T11:32:35;2.20;;;1.20;;
16737;SDS011;17906;47.684;10.806;2024-01-30T11:35:03;3.53;;;1.20;;
16737;SDS011;17906;47.684;10.806;2024-01-30T11:37:31;2.60;;;1.43;;
16737;SDS011;17906;47.684;10.806;2024-01-30T11:39:58;2.60;;;1.77;;
16737;SDS011;17906;47.684;10.806;2024-01-30T11:42:26;2.27;;;1.10;;
16737;SDS011;17906;47.684;10.806;2024-01-30T11:44:53;5.80;;;1.40;;
16737;SDS011;17906;47.684;10.806;2024-01-30T11:47:20;3.90;;;1.50;;
16737;SDS011;17906;47.684;10.806;2024-01-30T11:49:48;4.10;;;1.20;;
16737;SDS011;17906;47.684;10.806;2024-01-30T11:52:15;4.27;;;1.47;;
16737;SDS011;17906;47.684;10.806;2024-01-30T11:54:42;2.70;;;1.40;;
16737;SDS011;17906;47.684;10.806;2024-01-30T11:57:09;2.47;;;1.57;;
16737;SDS011;17906;47.684;10.806;2024-01-30T11:59:37;1.97;;;1.20;;
16737;SDS011;17906;47.684;10.806;2024-01-30T12:02:04;2.83;;;1.60;;
16737;SDS011;17906;47.684;10.806;2024-01-30T12:04:30;1.73;;;1.10;;
16737;SDS011;17906;47.684;10.806;2024-01-30T12:06:57;2.80;;;1.40;;
16737;SDS011;17906;47.684;10.806;2024-01-30T12:09:23;1.50;;;1.20;;
16737;SDS011;17906;47.684;10.806;2024-01-30T12:11:50;2.50;;;1.40;;
16737;SDS011;17906;47.684;10.806;2024-01-30T12:14:17;2.33;;;1.20;;
16737;SDS011;17906;47.684;10.806;2024-01-30T12:16:49;1.80;;;1.23;;
16737;SDS011;17906;47.684;10.806;2024-01-30T12:19:21;2.90;;;1.13;;
16737;SDS011;17906;47.684;10.806;2024-01-30T12:21:53;1.30;;;0.90;;
16737;SDS011;17906;47.684;10.806;2024-01-30T12:24:20;3.83;;;1.10;;
16737;SDS011;17906;47.684;10.806;2024-01-30T12:26:47;1.93;;;1.10;;
16737;SDS011;17906;47.684;10.806;2024-01-30T12:29:14;2.37;;;1.30;;
16737;SDS011;17906;47.684;10.806;2024-01-30T12:31:41;2.50;;;0.90;;
16737;SDS011;17906;47.684;10.806;2024-01-30T12:34:13;2.00;;;1.10;;
16737;SDS011;17906;47.684;10.806;2024-01-30T12:36:40;3.33;;;1.13;;
16737;SDS011;17906;47.684;10.806;2024-01-30T12:39:10;3.27;;;0.90;;
16737;SDS011;17906;47.684;10.806;2024-01-30T12:41:37;1.80;;;1.00;;
16737;SDS011;17906;47.684;10.806;2024-01-30T12:44:04;1.70;;;0.90;;
16737;SDS011;17906;47.684;10.806;2024-01-30T12:46:31;2.80;;;1.03;;
16737;SDS011;17906;47.684;10.806;2024-01-30T12:48:57;1.73;;;1.00;;
16737;SDS011;17906;47.684;10.806;2024-01-30T12:51:25;3.87;;;1.30;;
16737;SDS011;17906;47.684;10.806;2024-01-30T12:53:52;2.57;;;1.00;;
16737;SDS011;17906;47.684;10.806;2024-01-30T12:56:19;4.93;;;1.07;;
16737;SDS011;17906;47.684;10.806;2024-01-30T12:58:46;2.13;;;1.00;;
16737;SDS011;17906;47.684;10.806;2024-01-30T13:01:12;1.77;;;1.10;;
16737;SDS011;17906;47.684;10.806;2024-01-30T13:03:39;1.50;;;1.00;;
16737;SDS011;17906;47.684;10.806;2024-01-30T13:06:06;3.10;;;1.33;;
16737;SDS011;17906;47.684;10.806;2024-01-30T13:08:34;3.33;;;1.60;;
16737;SDS011;17906;47.684;10.806;2024-01-30T13:11:00;4.20;;;1.30;;
16737;SDS011;17906;47.684;10.806;2024-01-30T13:13:27;2.00;;;1.00;;
16737;SDS011;17906;47.684;10.806;2024-01-30T13:15:54;2.17;;;1.17;;
16737;SDS011;17906;47.684;10.806;2024-01-30T13:18:20;2.30;;;1.20;;
16737;SDS011;17906;47.684;10.806;2024-01-30T13:20:47;1.70;;;1.20;;
16737;SDS011;17906;47.684;10.806;2024-01-30T13:23:14;3.13;;;1.10;;
16737;SDS011;17906;47.684;10.806;2024-01-30T13:25:42;3.73;;;1.33;;
16737;SDS011;17906;47.684;10.806;2024-01-30T13:28:08;1.83;;;0.90;;
16737;SDS011;17906;47.684;10.806;2024-01-30T13:30:35;2.37;;;1.23;;
16737;SDS011;17906;47.684;10.806;2024-01-30T13:33:02;1.83;;;1.10;;
16737;SDS011;17906;47.684;10.806;2024-01-30T13:35:29;3.93;;;1.10;;
16737;SDS011;17906;47.684;10.806;2024-01-30T13:37:55;2.40;;;1.10;;
16737;SDS011;17906;47.684;10.806;2024-01-30T13:40:22;2.50;;;1.10;;
16737;SDS011;17906;47.684;10.806;2024-01-30T13:42:50;5.20;;;1.20;;
16737;SDS011;17906;47.684;10.806;2024-01-30T13:45:17;3.17;;;1.10;;
16737;SDS011;17906;47.684;10.806;2024-01-30T13:47:43;2.00;;;1.10;;
16737;SDS011;17906;47.684;10.806;2024-01-30T13:50:10;3.03;;;1.20;;
16737;SDS011;17906;47.684;10.806;2024-01-30T13:52:40;2.63;;;1.10;;
16737;SDS011;17906;47.684;10.806;2024-01-30T13:55:06;2.30;;;1.17;;
16737;SDS011;17906;47.684;10.806;2024-01-30T13:57:35;1.90;;;1.20;;
16737;SDS011;17906;47.684;10.806;2024-01-30T14:00:03;1.87;;;1.20;;
16737;SDS011;17906;47.684;10.806;2024-01-30T14:02:31;8.37;;;2.93;;
16737;SDS011;17906;47.684;10.806;2024-01-30T14:04:58;7.70;;;2.13;;
16737;SDS011;17906;47.684;10.806;2024-01-30T14:07:25;3.90;;;1.60;;
16737;SDS011;17906;47.684;10.806;2024-01-30T14:09:51;3.87;;;1.47;;
16737;SDS011;17906;47.684;10.806;2024-01-30T14:12:18;1.90;;;1.20;;
16737;SDS011;17906;47.684;10.806;2024-01-30T14:14:44;3.40;;;1.10;;
16737;SDS011;17906;47.684;10.806;2024-01-30T14:17:12;2.30;;;1.20;;
16737;SDS011;17906;47.684;10.806;2024-01-30T14:19:39;2.57;;;1.30;;
16737;SDS011;17906;47.684;10.806;2024-01-30T14:22:06;2.17;;;1.20;;
16737;SDS011;17906;47.684;10.806;2024-01-30T14:24:33;2.63;;;1.17;;
16737;SDS011;17906;47.684;10.806;2024-01-30T14:27:00;2.00;;;0.87;;
16737;SDS011;17906;47.684;10.806;2024-01-30T14:29:26;3.23;;;1.00;;
16737;SDS011;17906;47.684;10.806;2024-01-30T14:31:53;3.60;;;1.53;;
16737;SDS011;17906;47.684;10.806;2024-01-30T14:34:21;2.60;;;1.40;;
16737;SDS011;17906;47.684;10.806;2024-01-30T14:36:48;9.17;;;3.50;;